createdAt,value
2019-01-05T00:00:53.884Z,1009.64
2019-01-05T00:01:53.856Z,1009.64
2019-01-05T00:02:53.847Z,1009.63
2019-01-05T00:03:53.846Z,1009.60
2019-01-05T00:04:53.822Z,1009.61
2019-01-05T00:05:53.826Z,1009.59
2019-01-05T00:06:53.799Z,1009.57
2019-01-05T00:07:53.789Z,1009.57
2019-01-05T00:08:53.777Z,1009.61
2019-01-05T00:09:53.766Z,1009.61
2019-01-05T00:10:53.770Z,1009.61
2019-01-05T00:11:53.748Z,1009.61
2019-01-05T00:12:53.733Z,1009.59
2019-01-05T00:13:53.723Z,1009.54
2019-01-05T00:14:53.719Z,1009.50
2019-01-05T00:15:53.716Z,1009.49
2019-01-05T00:16:53.687Z,1009.43
2019-01-05T00:17:53.674Z,1009.41
2019-01-05T00:18:53.664Z,1009.44
2019-01-05T00:19:53.654Z,1009.37
2019-01-05T00:20:53.658Z,1009.28
2019-01-05T00:21:53.631Z,1009.33
2019-01-05T00:22:53.619Z,1009.35
2019-01-05T00:23:53.610Z,1009.32
2019-01-05T00:24:53.598Z,1009.32
2019-01-05T00:25:53.606Z,1009.34
2019-01-05T00:26:53.576Z,1009.31
2019-01-05T00:27:53.564Z,1009.27
2019-01-05T00:28:53.552Z,1009.26
2019-01-05T00:29:53.542Z,1009.28
2019-01-05T00:30:53.546Z,1009.28
2019-01-05T00:31:53.518Z,1009.24
2019-01-05T00:32:53.507Z,1009.19
2019-01-05T00:33:53.497Z,1009.21
2019-01-05T00:34:53.490Z,1009.16
2019-01-05T00:35:53.493Z,1009.19
2019-01-05T00:36:53.464Z,1009.21
2019-01-05T00:37:53.452Z,1009.20
2019-01-05T00:38:53.487Z,1009.14
2019-01-05T00:39:53.430Z,1009.20
2019-01-05T00:40:53.440Z,1009.22
2019-01-05T00:41:53.407Z,1009.19
2019-01-05T00:42:53.396Z,1009.22
2019-01-05T00:43:53.388Z,1009.22
2019-01-05T00:44:53.372Z,1009.21
2019-01-05T00:45:53.379Z,1009.20
2019-01-05T00:46:53.359Z,1009.13
2019-01-05T00:47:53.339Z,1009.13
2019-01-05T00:48:53.329Z,1009.10
2019-01-05T00:49:53.317Z,1009.03
2019-01-05T00:50:53.326Z,1009.07
2019-01-05T00:51:53.301Z,1009.04
2019-01-05T00:52:53.283Z,1009.01
2019-01-05T00:53:53.272Z,1008.99
2019-01-05T00:54:53.265Z,1008.95
2019-01-05T00:55:53.275Z,1008.94
2019-01-05T00:56:53.243Z,1008.92
2019-01-05T00:57:53.227Z,1008.90
2019-01-05T00:58:53.215Z,1008.87
2019-01-05T00:59:53.206Z,1008.87
2019-01-05T01:00:53.229Z,1008.85
2019-01-05T01:01:53.183Z,1008.85
2019-01-05T01:02:53.173Z,1008.85
2019-01-05T01:03:53.160Z,1008.87
2019-01-05T01:04:53.150Z,1008.82
2019-01-05T01:05:53.150Z,1008.82
2019-01-05T01:06:53.126Z,1008.84
2019-01-05T01:07:53.114Z,1008.80
2019-01-05T01:08:53.105Z,1008.80
2019-01-05T01:09:53.091Z,1008.77
2019-01-05T01:10:53.094Z,1008.85
2019-01-05T01:11:53.069Z,1008.86
2019-01-05T01:12:53.059Z,1008.85
2019-01-05T01:13:53.051Z,1008.82
2019-01-05T01:14:53.037Z,1008.85
2019-01-05T01:15:53.046Z,1008.79
2019-01-05T01:16:53.014Z,1008.80
2019-01-05T01:17:53.002Z,1008.73
2019-01-05T01:18:52.991Z,1008.79
2019-01-05T01:19:52.978Z,1008.74
2019-01-05T01:20:52.985Z,1008.75
2019-01-05T01:21:52.956Z,1008.71
2019-01-05T01:22:52.947Z,1008.73
2019-01-05T01:23:52.935Z,1008.69
2019-01-05T01:24:52.921Z,1008.73
2019-01-05T01:25:52.929Z,1008.68
2019-01-05T01:26:52.908Z,1008.73
2019-01-05T01:27:52.888Z,1008.61
2019-01-05T01:28:52.878Z,1008.70
2019-01-05T01:29:52.866Z,1008.68
2019-01-05T01:30:52.875Z,1008.62
2019-01-05T01:31:52.845Z,1008.64
2019-01-05T01:32:52.832Z,1008.67
2019-01-05T01:33:52.822Z,1008.59
2019-01-05T01:34:52.808Z,1008.62
2019-01-05T01:35:52.816Z,1008.60
2019-01-05T01:36:52.789Z,1008.67
2019-01-05T01:37:52.776Z,1008.58
2019-01-05T01:38:52.767Z,1008.54
2019-01-05T01:39:52.753Z,1008.52
2019-01-05T01:40:52.759Z,1008.50
2019-01-05T01:41:52.731Z,1008.56
2019-01-05T01:42:52.724Z,1008.54
2019-01-05T01:43:52.708Z,1008.52
2019-01-05T01:44:52.703Z,1008.48
2019-01-05T01:45:52.711Z,1008.46
2019-01-05T01:46:52.680Z,1008.46
2019-01-05T01:47:52.668Z,1008.46
2019-01-05T01:48:52.651Z,1008.42
2019-01-05T01:49:52.642Z,1008.41
2019-01-05T01:50:52.645Z,1008.32
2019-01-05T01:51:52.621Z,1008.33
2019-01-05T01:52:52.608Z,1008.32
2019-01-05T01:53:52.595Z,1008.25
2019-01-05T01:54:52.586Z,1008.30
2019-01-05T01:55:52.593Z,1008.29
2019-01-05T01:56:52.564Z,1008.27
2019-01-05T01:57:52.549Z,1008.23
2019-01-05T01:58:52.542Z,1008.20
2019-01-05T01:59:52.532Z,1008.21
2019-01-05T02:00:52.532Z,1008.13
2019-01-05T02:01:52.506Z,1008.15
2019-01-05T02:02:52.495Z,1008.04
2019-01-05T02:03:52.483Z,1008.08
2019-01-05T02:04:52.476Z,1008.04
2019-01-05T02:05:52.476Z,1008.04
2019-01-05T02:06:52.450Z,1007.99
2019-01-05T02:07:52.439Z,1007.96
2019-01-05T02:08:52.427Z,1007.91
2019-01-05T02:09:52.415Z,1007.87
2019-01-05T02:10:52.434Z,1007.81
2019-01-05T02:11:52.393Z,1007.80
2019-01-05T02:12:52.383Z,1007.75
2019-01-05T02:13:52.371Z,1007.73
2019-01-05T02:14:52.360Z,1007.72
2019-01-05T02:15:52.365Z,1007.71
2019-01-05T02:16:52.338Z,1007.71
2019-01-05T02:17:52.325Z,1007.72
2019-01-05T02:18:52.317Z,1007.67
2019-01-05T02:19:52.302Z,1007.70
2019-01-05T02:20:52.310Z,1007.71
2019-01-05T02:21:52.280Z,1007.68
2019-01-05T02:22:52.270Z,1007.58
2019-01-05T02:23:52.257Z,1007.53
2019-01-05T02:24:52.249Z,1007.51
2019-01-05T02:25:52.253Z,1007.53
2019-01-05T02:26:52.226Z,1007.53
2019-01-05T02:27:52.220Z,1007.50
2019-01-05T02:28:52.205Z,1007.47
2019-01-05T02:29:52.191Z,1007.46
2019-01-05T02:30:52.196Z,1007.44
2019-01-05T02:31:52.170Z,1007.41
2019-01-05T02:32:52.162Z,1007.40
2019-01-05T02:33:52.153Z,1007.37
2019-01-05T02:34:52.138Z,1007.39
2019-01-05T02:36:01.030Z,1007.41
2019-01-05T02:37:01.570Z,1007.34
2019-01-05T02:38:03.113Z,1007.32
2019-01-05T02:39:02.146Z,1007.31
2019-01-05T02:40:00.688Z,1007.30
2019-01-05T02:40:59.951Z,1007.33
2019-01-05T02:41:52.065Z,1007.28
2019-01-05T02:42:52.050Z,1007.26
2019-01-05T02:43:52.035Z,1007.22
2019-01-05T02:44:52.023Z,1007.23
2019-01-05T02:45:52.028Z,1007.20
2019-01-05T02:46:52.003Z,1007.17
2019-01-05T02:47:51.994Z,1007.12
2019-01-05T02:48:51.977Z,1007.11
2019-01-05T02:49:51.966Z,1007.13
2019-01-05T02:50:51.971Z,1007.10
2019-01-05T02:51:51.942Z,1007.06
2019-01-05T02:52:51.933Z,1007.04
2019-01-05T02:53:51.922Z,1006.99
2019-01-05T02:54:51.909Z,1007.00
2019-01-05T02:55:51.915Z,1006.95
2019-01-05T02:56:51.895Z,1006.98
2019-01-05T02:57:51.876Z,1006.90
2019-01-05T02:58:51.864Z,1006.91
2019-01-05T02:59:51.852Z,1006.89
2019-01-05T03:00:51.861Z,1006.92
2019-01-05T03:01:51.834Z,1006.88
2019-01-05T03:02:51.818Z,1006.82
2019-01-05T03:03:51.808Z,1006.91
2019-01-05T03:04:51.801Z,1006.85
2019-01-05T03:05:51.803Z,1006.82
2019-01-05T03:06:51.777Z,1006.83
2019-01-05T03:07:51.769Z,1006.85
2019-01-05T03:08:51.754Z,1006.84
2019-01-05T03:09:51.743Z,1006.74
2019-01-05T03:10:51.745Z,1006.75
2019-01-05T03:11:51.721Z,1006.77
2019-01-05T03:12:51.712Z,1006.77
2019-01-05T03:13:51.698Z,1006.71
2019-01-05T03:14:51.685Z,1006.74
2019-01-05T03:15:51.692Z,1006.73
2019-01-05T03:16:51.662Z,1006.72
2019-01-05T03:17:51.652Z,1006.68
2019-01-05T03:18:51.640Z,1006.61
2019-01-05T03:19:51.631Z,1006.63
2019-01-05T03:20:51.634Z,1006.61
2019-01-05T03:21:51.605Z,1006.60
2019-01-05T03:22:51.595Z,1006.55
2019-01-05T03:23:51.584Z,1006.55
2019-01-05T03:24:51.573Z,1006.53
2019-01-05T03:25:51.579Z,1006.52
2019-01-05T03:26:51.554Z,1006.50
2019-01-05T03:27:51.537Z,1006.54
2019-01-05T03:28:51.525Z,1006.45
2019-01-05T03:29:51.518Z,1006.46
2019-01-05T03:30:51.528Z,1006.45
2019-01-05T03:31:51.513Z,1006.39
2019-01-05T03:32:51.483Z,1006.39
2019-01-05T03:33:51.471Z,1006.32
2019-01-05T03:34:51.462Z,1006.36
2019-01-05T03:35:51.467Z,1006.33
2019-01-05T03:36:51.437Z,1006.31
2019-01-05T03:37:51.427Z,1006.28
2019-01-05T03:38:51.413Z,1006.22
2019-01-05T03:39:51.405Z,1006.25
2019-01-05T03:40:51.407Z,1006.20
2019-01-05T03:41:51.388Z,1006.16
2019-01-05T03:42:51.369Z,1006.15
2019-01-05T03:43:51.362Z,1006.11
2019-01-05T03:44:51.347Z,1006.13
2019-01-05T03:45:51.354Z,1006.10
2019-01-05T03:46:51.324Z,1006.09
2019-01-05T03:47:51.319Z,1006.02
2019-01-05T03:48:51.303Z,1006.00
2019-01-05T03:49:51.293Z,1005.97
2019-01-05T03:50:51.296Z,1006.01
2019-01-05T03:51:51.270Z,1005.97
2019-01-05T03:52:51.261Z,1005.98
2019-01-05T03:53:51.246Z,1005.95
2019-01-05T03:54:51.234Z,1005.86
2019-01-05T03:55:51.247Z,1005.87
2019-01-05T03:56:51.214Z,1005.84
2019-01-05T03:57:51.201Z,1005.90
2019-01-05T03:58:51.191Z,1005.81
2019-01-05T03:59:51.178Z,1005.93
2019-01-05T04:00:51.184Z,1005.89
2019-01-05T04:01:51.159Z,1005.84
2019-01-05T04:02:51.145Z,1005.87
2019-01-05T04:03:51.135Z,1005.87
2019-01-05T04:04:51.127Z,1005.80
2019-01-05T04:05:51.125Z,1005.82
2019-01-05T04:06:51.101Z,1005.82
2019-01-05T04:07:51.088Z,1005.79
2019-01-05T04:08:51.078Z,1005.79
2019-01-05T04:09:51.072Z,1005.83
2019-01-05T04:10:51.075Z,1005.79
2019-01-05T04:11:51.046Z,1005.80
2019-01-05T04:12:51.035Z,1005.81
2019-01-05T04:13:51.023Z,1005.79
2019-01-05T04:14:51.011Z,1005.74
2019-01-05T04:15:51.015Z,1005.74
2019-01-05T04:16:50.989Z,1005.73
2019-01-05T04:17:50.977Z,1005.77
2019-01-05T04:18:50.968Z,1005.68
2019-01-05T04:19:50.954Z,1005.69
2019-01-05T04:20:50.964Z,1005.71
2019-01-05T04:21:50.937Z,1005.55
2019-01-05T04:22:50.920Z,1005.48
2019-01-05T04:23:50.911Z,1005.50
2019-01-05T04:24:50.898Z,1005.50
2019-01-05T04:25:50.906Z,1005.54
2019-01-05T04:26:50.878Z,1005.48
2019-01-05T04:27:50.869Z,1005.58
2019-01-05T04:28:50.882Z,1005.54
2019-01-05T04:29:50.841Z,1005.55
2019-01-05T04:30:50.853Z,1005.53
2019-01-05T04:31:50.822Z,1005.52
2019-01-05T04:32:50.809Z,1005.42
2019-01-05T04:33:50.799Z,1005.46
2019-01-05T04:34:50.788Z,1005.47
2019-01-05T04:35:50.794Z,1005.49
2019-01-05T04:36:50.764Z,1005.46
2019-01-05T04:37:50.753Z,1005.41
2019-01-05T04:38:50.746Z,1005.43
2019-01-05T04:39:50.730Z,1005.38
2019-01-05T04:40:50.737Z,1005.32
2019-01-05T04:41:50.708Z,1005.30
2019-01-05T04:42:50.697Z,1005.34
2019-01-05T04:43:50.684Z,1005.34
2019-01-05T04:44:50.672Z,1005.30
2019-01-05T04:45:50.681Z,1005.29
2019-01-05T04:46:50.654Z,1005.35
2019-01-05T04:47:50.641Z,1005.35
2019-01-05T04:48:50.629Z,1005.29
2019-01-05T04:49:50.619Z,1005.28
2019-01-05T04:50:50.625Z,1005.22
2019-01-05T04:51:50.599Z,1005.27
2019-01-05T04:52:50.588Z,1005.27
2019-01-05T04:53:50.573Z,1005.27
2019-01-05T04:54:50.562Z,1005.25
2019-01-05T04:55:50.566Z,1005.19
2019-01-05T04:56:50.540Z,1005.26
2019-01-05T04:57:50.537Z,1005.26
2019-01-05T04:58:50.517Z,1005.22
2019-01-05T04:59:50.508Z,1005.25
2019-01-05T05:00:50.513Z,1005.17
2019-01-05T05:01:50.488Z,1005.19
2019-01-05T05:02:50.480Z,1005.21
2019-01-05T05:03:50.462Z,1005.16
2019-01-05T05:04:50.453Z,1005.14
2019-01-05T05:05:50.456Z,1005.14
2019-01-05T05:06:50.428Z,1005.10
2019-01-05T05:07:50.418Z,1005.14
2019-01-05T05:08:50.411Z,1005.14
2019-01-05T05:09:50.392Z,1005.19
2019-01-05T05:10:50.399Z,1005.13
2019-01-05T05:11:50.373Z,1005.06
2019-01-05T05:12:50.362Z,1005.07
2019-01-05T05:13:50.351Z,1005.09
2019-01-05T05:14:50.339Z,1005.15
2019-01-05T05:15:50.344Z,1005.05
2019-01-05T05:16:50.316Z,1005.13
2019-01-05T05:17:50.303Z,1005.15
2019-01-05T05:18:50.294Z,1005.10
2019-01-05T05:19:50.281Z,1005.04
2019-01-05T05:20:50.289Z,1005.09
2019-01-05T05:21:50.260Z,1005.15
2019-01-05T05:22:50.276Z,1005.11
2019-01-05T05:23:50.236Z,1005.14
2019-01-05T05:24:50.226Z,1005.09
2019-01-05T05:25:50.232Z,1005.05
2019-01-05T05:26:50.206Z,1005.05
2019-01-05T05:27:50.196Z,1005.09
2019-01-05T05:28:50.180Z,1005.05
2019-01-05T05:29:50.171Z,1005.04
2019-01-05T05:30:50.175Z,1005.00
2019-01-05T05:31:50.148Z,1005.09
2019-01-05T05:32:50.137Z,1005.16
2019-01-05T05:33:50.124Z,1005.16
2019-01-05T05:34:50.117Z,1005.16
2019-01-05T05:35:50.915Z,1005.11
2019-01-05T05:36:50.090Z,1005.17
2019-01-05T05:37:50.080Z,1005.16
2019-01-05T05:38:50.069Z,1005.18
2019-01-05T05:39:50.056Z,1005.19
2019-01-05T05:40:50.063Z,1005.17
2019-01-05T05:41:50.034Z,1005.17
2019-01-05T05:42:50.022Z,1005.16
2019-01-05T05:43:50.011Z,1005.09
2019-01-05T05:44:50.001Z,1005.09
2019-01-05T05:45:50.008Z,1005.08
2019-01-05T05:46:49.981Z,1005.17
2019-01-05T05:47:49.969Z,1005.18
2019-01-05T05:48:49.956Z,1005.20
2019-01-05T05:49:49.946Z,1005.16
2019-01-05T05:50:49.953Z,1005.16
2019-01-05T05:51:49.925Z,1005.20
2019-01-05T05:52:49.912Z,1005.17
2019-01-05T05:53:49.901Z,1005.23
2019-01-05T05:54:49.895Z,1005.18
2019-01-05T05:55:49.896Z,1005.16
2019-01-05T05:56:49.869Z,1005.23
2019-01-05T05:57:49.855Z,1005.23
2019-01-05T05:58:49.845Z,1005.23
2019-01-05T05:59:49.834Z,1005.22
2019-01-05T06:00:49.840Z,1005.22
2019-01-05T06:01:49.812Z,1005.20
2019-01-05T06:02:49.801Z,1005.25
2019-01-05T06:03:49.788Z,1005.19
2019-01-05T06:04:49.778Z,1005.17
2019-01-05T06:05:49.787Z,1005.20
2019-01-05T06:06:49.761Z,1005.19
2019-01-05T06:07:49.745Z,1005.18
2019-01-05T06:08:49.733Z,1005.21
2019-01-05T06:09:49.721Z,1005.19
2019-01-05T06:10:49.733Z,1005.20
2019-01-05T06:11:49.701Z,1005.20
2019-01-05T06:12:49.691Z,1005.19
2019-01-05T06:13:49.678Z,1005.09
2019-01-05T06:14:49.667Z,1005.11
2019-01-05T06:15:49.672Z,1005.12
2019-01-05T06:16:49.644Z,1005.16
2019-01-05T06:17:49.638Z,1005.08
2019-01-05T06:18:49.623Z,1005.06
2019-01-05T06:19:49.617Z,1005.06
2019-01-05T06:20:49.621Z,1005.12
2019-01-05T06:21:49.588Z,1005.11
2019-01-05T06:22:49.578Z,1005.15
2019-01-05T06:23:49.570Z,1005.17
2019-01-05T06:24:49.555Z,1005.11
2019-01-05T06:25:49.559Z,1005.19
2019-01-05T06:26:49.535Z,1005.20
2019-01-05T06:27:49.522Z,1005.16
2019-01-05T06:28:49.511Z,1005.17
2019-01-05T06:29:49.498Z,1005.20
2019-01-05T06:30:49.505Z,1005.22
2019-01-05T06:31:49.481Z,1005.22
2019-01-05T06:32:49.465Z,1005.24
2019-01-05T06:33:49.453Z,1005.25
2019-01-05T06:34:49.442Z,1005.21
2019-01-05T06:35:49.453Z,1005.31
2019-01-05T06:36:49.419Z,1005.32
2019-01-05T06:37:49.413Z,1005.27
2019-01-05T06:38:49.400Z,1005.32
2019-01-05T06:39:49.387Z,1005.35
2019-01-05T06:40:49.395Z,1005.33
2019-01-05T06:41:49.365Z,1005.29
2019-01-05T06:42:49.354Z,1005.27
2019-01-05T06:43:49.347Z,1005.24
2019-01-05T06:44:49.332Z,1005.20
2019-01-05T06:45:49.336Z,1005.21
2019-01-05T06:46:49.309Z,1005.16
2019-01-05T06:47:49.296Z,1005.20
2019-01-05T06:48:49.288Z,1005.17
2019-01-05T06:49:49.277Z,1005.16
2019-01-05T06:50:49.287Z,1005.16
2019-01-05T06:51:49.254Z,1005.10
2019-01-05T06:52:49.243Z,1005.11
2019-01-05T06:53:49.231Z,1005.17
2019-01-05T06:54:49.220Z,1005.08
2019-01-05T06:55:49.225Z,1005.16
2019-01-05T06:56:49.197Z,1005.18
2019-01-05T06:57:49.186Z,1005.25
2019-01-05T06:58:49.177Z,1005.18
2019-01-05T06:59:49.164Z,1005.21
2019-01-05T07:00:49.172Z,1005.22
2019-01-05T07:01:49.142Z,1005.21
2019-01-05T07:02:49.132Z,1005.21
2019-01-05T07:03:49.119Z,1005.21
2019-01-05T07:04:49.107Z,1005.28
2019-01-05T07:05:49.111Z,1005.18
2019-01-05T07:06:49.085Z,1005.19
2019-01-05T07:07:49.076Z,1005.15
2019-01-05T07:08:49.063Z,1005.15
2019-01-05T07:09:49.053Z,1005.20
2019-01-05T07:10:49.059Z,1005.19
2019-01-05T07:11:49.029Z,1005.23
2019-01-05T07:12:49.020Z,1005.19
2019-01-05T07:13:49.008Z,1005.26
2019-01-05T07:14:48.998Z,1005.29
2019-01-05T07:15:49.006Z,1005.33
2019-01-05T07:16:48.974Z,1005.27
2019-01-05T07:17:48.965Z,1005.37
2019-01-05T07:18:48.954Z,1005.35
2019-01-05T07:19:48.943Z,1005.43
2019-01-05T07:20:48.947Z,1005.36
2019-01-05T07:21:48.920Z,1005.41
2019-01-05T07:22:48.908Z,1005.41
2019-01-05T07:23:58.806Z,1005.44
2019-01-05T07:24:58.343Z,1005.46
2019-01-05T07:25:57.440Z,1005.42
2019-01-05T07:26:57.421Z,1005.44
2019-01-05T07:27:57.460Z,1005.37
2019-01-05T07:28:57.498Z,1005.33
2019-01-05T07:29:58.534Z,1005.32
2019-01-05T07:30:48.836Z,1005.39
2019-01-05T07:31:48.806Z,1005.36
2019-01-05T07:32:48.795Z,1005.35
2019-01-05T07:33:48.783Z,1005.38
2019-01-05T07:34:48.774Z,1005.42
2019-01-05T07:35:48.781Z,1005.40
2019-01-05T07:36:48.749Z,1005.40
2019-01-05T07:37:48.740Z,1005.43
2019-01-05T07:38:48.728Z,1005.44
2019-01-05T07:39:48.718Z,1005.44
2019-01-05T07:40:48.721Z,1005.48
2019-01-05T07:41:48.694Z,1005.48
2019-01-05T07:42:48.684Z,1005.48
2019-01-05T07:43:48.672Z,1005.44
2019-01-05T07:44:48.662Z,1005.44
2019-01-05T07:45:48.667Z,1005.48
2019-01-05T07:46:48.639Z,1005.46
2019-01-05T07:47:48.628Z,1005.53
2019-01-05T07:48:48.618Z,1005.48
2019-01-05T07:49:48.605Z,1005.49
2019-01-05T07:50:48.611Z,1005.56
2019-01-05T07:51:48.584Z,1005.51
2019-01-05T07:52:48.576Z,1005.46
2019-01-05T07:53:48.559Z,1005.47
2019-01-05T07:54:48.548Z,1005.53
2019-01-05T07:55:48.557Z,1005.55
2019-01-05T07:56:48.526Z,1005.56
2019-01-05T07:57:48.515Z,1005.53
2019-01-05T07:58:48.504Z,1005.46
2019-01-05T07:59:48.491Z,1005.51
2019-01-05T08:00:48.504Z,1005.50
2019-01-05T08:01:48.470Z,1005.53
2019-01-05T08:02:48.460Z,1005.49
2019-01-05T08:03:48.447Z,1005.54
2019-01-05T08:04:48.439Z,1005.54
2019-01-05T08:05:48.440Z,1005.53
2019-01-05T08:06:48.414Z,1005.57
2019-01-05T08:07:48.402Z,1005.60
2019-01-05T08:08:48.394Z,1005.58
2019-01-05T08:09:48.380Z,1005.54
2019-01-05T08:10:48.388Z,1005.65
2019-01-05T08:11:48.360Z,1005.63
2019-01-05T08:12:48.347Z,1005.66
2019-01-05T08:13:48.337Z,1005.72
2019-01-05T08:14:48.325Z,1005.73
2019-01-05T08:15:48.332Z,1005.68
2019-01-05T08:16:48.300Z,1005.67
2019-01-05T08:17:48.293Z,1005.67
2019-01-05T08:18:48.277Z,1005.66
2019-01-05T08:19:48.270Z,1005.69
2019-01-05T08:20:48.272Z,1005.72
2019-01-05T08:21:48.245Z,1005.70
2019-01-05T08:22:48.238Z,1005.68
2019-01-05T08:23:48.225Z,1005.69
2019-01-05T08:24:48.212Z,1005.77
2019-01-05T08:25:48.217Z,1005.75
2019-01-05T08:26:48.188Z,1005.77
2019-01-05T08:27:48.176Z,1005.76
2019-01-05T08:28:48.167Z,1005.73
2019-01-05T08:29:48.155Z,1005.67
2019-01-05T08:30:48.161Z,1005.66
2019-01-05T08:31:48.133Z,1005.64
2019-01-05T08:32:48.121Z,1005.64
2019-01-05T08:33:48.109Z,1005.68
2019-01-05T08:34:48.098Z,1005.64
2019-01-05T08:35:48.106Z,1005.72
2019-01-05T08:36:48.078Z,1005.68
2019-01-05T08:37:48.064Z,1005.68
2019-01-05T08:38:48.053Z,1005.70
2019-01-05T08:39:48.041Z,1005.64
2019-01-05T08:40:48.048Z,1005.66
2019-01-05T08:41:48.019Z,1005.66
2019-01-05T08:42:48.006Z,1005.70
2019-01-05T08:43:47.999Z,1005.68
2019-01-05T08:44:47.987Z,1005.72
2019-01-05T08:45:47.990Z,1005.85
2019-01-05T08:46:47.963Z,1005.87
2019-01-05T08:47:47.950Z,1005.89
2019-01-05T08:48:47.940Z,1005.93
2019-01-05T08:49:47.927Z,1005.95
2019-01-05T08:50:47.932Z,1005.98
2019-01-05T08:51:47.905Z,1006.03
2019-01-05T08:52:47.896Z,1005.96
2019-01-05T08:53:47.882Z,1005.97
2019-01-05T08:54:47.873Z,1005.94
2019-01-05T08:55:47.877Z,1005.96
2019-01-05T08:56:47.849Z,1005.93
2019-01-05T08:57:47.837Z,1005.87
2019-01-05T08:58:47.826Z,1005.96
2019-01-05T08:59:47.814Z,1005.90
2019-01-05T09:00:47.820Z,1006.02
2019-01-05T09:01:47.792Z,1005.94
2019-01-05T09:02:47.781Z,1006.00
2019-01-05T09:03:47.772Z,1005.93
2019-01-05T09:04:47.757Z,1005.98
2019-01-05T09:05:47.766Z,1005.97
2019-01-05T09:06:47.735Z,1006.12
2019-01-05T09:07:47.722Z,1006.07
2019-01-05T09:08:47.711Z,1005.95
2019-01-05T09:09:47.700Z,1006.03
2019-01-05T09:10:47.706Z,1006.04
2019-01-05T09:11:47.681Z,1006.09
2019-01-05T09:12:47.666Z,1006.10
2019-01-05T09:13:47.670Z,1006.10
2019-01-05T09:14:47.644Z,1006.10
2019-01-05T09:15:47.652Z,1006.08
2019-01-05T09:16:47.628Z,1006.11
2019-01-05T09:17:47.612Z,1006.10
2019-01-05T09:18:47.605Z,1006.16
2019-01-05T09:19:48.373Z,1006.10
2019-01-05T09:20:47.595Z,1006.16
2019-01-05T09:21:47.565Z,1006.10
2019-01-05T09:22:47.553Z,1006.14
2019-01-05T09:23:48.054Z,1006.17
2019-01-05T09:24:47.533Z,1006.19
2019-01-05T09:25:47.536Z,1006.11
2019-01-05T09:26:47.508Z,1006.16
2019-01-05T09:27:47.499Z,1006.19
2019-01-05T09:28:47.487Z,1006.15
2019-01-05T09:29:47.474Z,1006.26
2019-01-05T09:30:47.484Z,1006.19
2019-01-05T09:31:47.450Z,1006.21
2019-01-05T09:32:47.439Z,1006.21
2019-01-05T09:33:48.061Z,1006.21
2019-01-05T09:34:47.421Z,1006.29
2019-01-05T09:35:47.425Z,1006.26
2019-01-05T09:36:47.395Z,1006.24
2019-01-05T09:37:47.384Z,1006.34
2019-01-05T09:38:47.375Z,1006.28
2019-01-05T09:39:47.360Z,1006.29
2019-01-05T09:40:47.369Z,1006.26
2019-01-05T09:41:47.340Z,1006.30
2019-01-05T09:42:47.326Z,1006.27
2019-01-05T09:43:47.316Z,1006.26
2019-01-05T09:44:47.303Z,1006.23
2019-01-05T09:45:47.314Z,1006.30
2019-01-05T09:46:47.282Z,1006.35
2019-01-05T09:47:47.270Z,1006.36
2019-01-05T09:48:47.260Z,1006.34
2019-01-05T09:49:47.248Z,1006.38
2019-01-05T09:50:47.254Z,1006.36
2019-01-05T09:51:47.225Z,1006.36
2019-01-05T09:52:47.214Z,1006.42
2019-01-05T09:53:47.205Z,1006.41
2019-01-05T09:54:47.190Z,1006.46
2019-01-05T09:55:47.198Z,1006.47
2019-01-05T09:56:47.168Z,1006.54
2019-01-05T09:57:47.156Z,1006.45
2019-01-05T09:58:47.148Z,1006.42
2019-01-05T09:59:47.136Z,1006.44
2019-01-05T10:00:47.136Z,1006.48
2019-01-05T10:01:47.112Z,1006.46
2019-01-05T10:02:47.109Z,1006.42
2019-01-05T10:03:47.092Z,1006.46
2019-01-05T10:04:47.080Z,1006.47
2019-01-05T10:05:47.083Z,1006.42
2019-01-05T10:06:47.054Z,1006.35
2019-01-05T10:07:47.044Z,1006.35
2019-01-05T10:08:47.035Z,1006.33
2019-01-05T10:09:47.021Z,1006.29
2019-01-05T10:10:47.028Z,1006.27
2019-01-05T10:11:46.997Z,1006.23
2019-01-05T10:12:46.991Z,1006.22
2019-01-05T10:13:46.978Z,1006.22
2019-01-05T10:14:46.966Z,1006.24
2019-01-05T10:15:46.972Z,1006.23
2019-01-05T10:16:46.944Z,1006.28
2019-01-05T10:17:46.931Z,1006.41
2019-01-05T10:18:46.918Z,1006.40
2019-01-05T10:19:46.912Z,1006.30
2019-01-05T10:20:46.912Z,1006.30
2019-01-05T10:21:46.888Z,1006.30
2019-01-05T10:22:46.874Z,1006.31
2019-01-05T10:23:46.862Z,1006.37
2019-01-05T10:24:46.854Z,1006.28
2019-01-05T10:25:46.854Z,1006.39
2019-01-05T10:26:46.828Z,1006.35
2019-01-05T10:27:46.817Z,1006.38
2019-01-05T10:28:46.803Z,1006.35
2019-01-05T10:29:46.793Z,1006.45
2019-01-05T10:30:46.801Z,1006.37
2019-01-05T10:31:46.772Z,1006.34
2019-01-05T10:32:46.759Z,1006.40
2019-01-05T10:33:46.751Z,1006.35
2019-01-05T10:34:46.735Z,1006.40
2019-01-05T10:35:46.743Z,1006.37
2019-01-05T10:36:46.718Z,1006.37
2019-01-05T10:37:46.702Z,1006.35
2019-01-05T10:38:46.691Z,1006.32
2019-01-05T10:39:46.682Z,1006.29
2019-01-05T10:40:46.688Z,1006.36
2019-01-05T10:41:46.658Z,1006.35
2019-01-05T10:42:46.648Z,1006.34
2019-01-05T10:43:46.634Z,1006.36
2019-01-05T10:44:46.624Z,1006.33
2019-01-05T10:45:46.631Z,1006.26
2019-01-05T10:46:46.602Z,1006.27
2019-01-05T10:47:46.592Z,1006.31
2019-01-05T10:48:46.578Z,1006.29
2019-01-05T10:49:46.566Z,1006.34
2019-01-05T10:50:46.574Z,1006.28
2019-01-05T10:51:46.543Z,1006.36
2019-01-05T10:52:46.536Z,1006.40
2019-01-05T10:53:46.525Z,1006.41
2019-01-05T10:54:46.511Z,1006.43
2019-01-05T10:55:46.518Z,1006.42
2019-01-05T10:56:46.488Z,1006.43
2019-01-05T10:57:46.476Z,1006.40
2019-01-05T10:58:46.466Z,1006.38
2019-01-05T10:59:46.454Z,1006.35
2019-01-05T11:00:46.580Z,1006.39
2019-01-05T11:01:46.433Z,1006.33
2019-01-05T11:02:46.421Z,1006.29
2019-01-05T11:03:46.410Z,1006.33
2019-01-05T11:04:46.401Z,1006.29
2019-01-05T11:05:46.404Z,1006.26
2019-01-05T11:06:46.374Z,1006.27
2019-01-05T11:07:46.361Z,1006.33
2019-01-05T11:08:46.350Z,1006.39
2019-01-05T11:09:46.342Z,1006.32
2019-01-05T11:10:46.346Z,1006.30
2019-01-05T11:11:46.316Z,1006.25
2019-01-05T11:12:46.308Z,1006.28
2019-01-05T11:13:46.293Z,1006.22
2019-01-05T11:14:46.282Z,1006.28
2019-01-05T11:15:46.291Z,1006.31
2019-01-05T11:16:46.260Z,1006.30
2019-01-05T11:17:46.254Z,1006.33
2019-01-05T11:18:46.238Z,1006.35
2019-01-05T11:19:46.227Z,1006.32
2019-01-05T11:20:46.251Z,1006.34
2019-01-05T11:21:46.203Z,1006.39
2019-01-05T11:22:46.199Z,1006.37
2019-01-05T11:23:46.186Z,1006.47
2019-01-05T11:24:46.173Z,1006.48
2019-01-05T11:25:46.183Z,1006.43
2019-01-05T11:26:46.151Z,1006.42
2019-01-05T11:27:46.136Z,1006.40
2019-01-05T11:28:46.137Z,1006.42
2019-01-05T11:29:46.114Z,1006.50
2019-01-05T11:30:46.175Z,1006.46
2019-01-05T11:31:46.094Z,1006.43
2019-01-05T11:32:46.082Z,1006.38
2019-01-05T11:33:46.082Z,1006.42
2019-01-05T11:34:46.061Z,1006.38
2019-01-05T11:35:46.066Z,1006.36
2019-01-05T11:36:46.042Z,1006.31
2019-01-05T11:37:46.035Z,1006.35
2019-01-05T11:38:46.013Z,1006.33
2019-01-05T11:39:46.000Z,1006.32
2019-01-05T11:40:46.004Z,1006.35
2019-01-05T11:41:45.979Z,1006.36
2019-01-05T11:42:45.992Z,1006.36
2019-01-05T11:43:45.972Z,1006.38
2019-01-05T11:44:45.957Z,1006.47
2019-01-05T11:45:45.949Z,1006.51
2019-01-05T11:46:45.925Z,1006.49
2019-01-05T11:47:45.927Z,1006.49
2019-01-05T11:48:45.901Z,1006.48
2019-01-05T11:49:45.899Z,1006.46
2019-01-05T11:50:45.896Z,1006.43
2019-01-05T11:51:45.866Z,1006.43
2019-01-05T11:52:45.856Z,1006.42
2019-01-05T11:53:45.856Z,1006.40
2019-01-05T11:54:45.832Z,1006.44
2019-01-05T11:55:45.843Z,1006.44
2019-01-05T11:56:45.809Z,1006.46
2019-01-05T11:57:45.837Z,1006.42
2019-01-05T11:58:45.794Z,1006.47
2019-01-05T11:59:45.788Z,1006.43
2019-01-05T12:00:45.782Z,1006.43
2019-01-05T12:01:45.753Z,1006.44
2019-01-05T12:02:45.742Z,1006.37
2019-01-05T12:03:45.734Z,1006.49
2019-01-05T12:04:45.717Z,1006.51
2019-01-05T12:05:45.727Z,1006.49